Time;durP1;ratioP1;P1;durP2;ratioP2;P2;SDS_P1;SDS_P2;PMS_P1;PMS_P2;Temp;Humidity;BMP_temperature;BMP_pressure;BME280_temperature;BME280_humidity;BME280_pressure;Samples;Min_cycle;Max_cycle;Signal;HPM_P1;HPM_P2
2021/12/07 00:00:04;;;;;;;;;;;22.80;22.10;;;;;;5124426;27;19974;-55
2021/12/07 00:02:30;;;;;;;;;;;22.80;22.00;;;;;;5126997;27;19924;-47
2021/12/07 00:04:56;;;;;;;;;;;22.90;21.90;;;;;;5122710;27;20288;-49
2021/12/07 00:07:22;;;;;;;;;;;22.80;21.90;;;;;;5128076;27;19930;-46
2021/12/07 00:09:50;;;;;;;;;;;22.90;21.80;;;;;;5104002;27;19941;-46
2021/12/07 00:12:15;;;;;;;;;;;22.80;21.80;;;;;;5120970;27;19942;-49
2021/12/07 00:14:43;;;;;;;;;;;22.90;21.70;;;;;;5127552;27;20439;-49
2021/12/07 00:17:09;;;;;;;;;;;22.90;21.70;;;;;;5121816;27;19929;-47
2021/12/07 00:19:35;;;;;;;;;;;22.90;21.70;;;;;;5121933;27;19923;-46
2021/12/07 00:22:02;;;;;;;;;;;22.90;21.70;;;;;;5127013;27;19987;-49
2021/12/07 00:24:28;;;;;;;;;;;23.00;21.60;;;;;;5122373;27;20616;-46
2021/12/07 00:26:53;;;;;;;;;;;23.00;21.50;;;;;;5127610;27;20025;-45
2021/12/07 00:29:19;;;;;;;;;;;23.10;21.50;;;;;;5122139;27;19923;-48
2021/12/07 00:31:52;;;;;;;;;;;23.10;21.50;;;;;;5102617;27;19927;-44
2021/12/07 00:37:00;;;;;;;;;;;23.20;21.50;;;;;;5121787;27;20018;-51
2021/12/07 00:39:25;;;;;;;;;;;22.90;21.70;;;;;;5121399;27;20162;-52
2021/12/07 00:41:51;;;;;;;;;;;22.80;21.80;;;;;;5127543;27;19924;-52
2021/12/07 00:44:18;;;;;;;;;;;22.80;21.90;;;;;;5122035;27;19930;-49
2021/12/07 00:46:43;;;;;;;;;;;22.80;21.90;;;;;;5121931;27;19957;-50
2021/12/07 00:49:09;;;;;;;;;;;22.70;21.90;;;;;;5127342;27;19959;-49
2021/12/07 00:51:35;;;;;;;;;;;22.80;21.90;;;;;;5121260;27;19931;-51
2021/12/07 00:54:01;;;;;;;;;;;22.80;22.00;;;;;;5126679;27;19959;-50
2021/12/07 00:56:27;;;;;;;;;;;22.80;22.00;;;;;;5121466;27;19927;-48
2021/12/07 00:58:54;;;;;;;;;;;22.80;22.30;;;;;;5121194;27;19965;-49
2021/12/07 01:01:19;;;;;;;;;;;22.80;22.50;;;;;;5127344;27;20014;-49
2021/12/07 01:03:45;;;;;;;;;;;22.80;22.70;;;;;;5121489;27;19935;-48
2021/12/07 01:06:23;;;;;;;;;;;22.80;22.80;;;;;;5121513;27;19924;-46
2021/12/07 01:25:06;;;;;;;;;;;22.80;23.60;;;;;;5125653;27;19928;-54
2021/12/07 01:27:32;;;;;;;;;;;22.80;23.60;;;;;;5102991;27;20022;-48
2021/12/07 01:30:23;;;;;;;;;;;22.80;23.70;;;;;;5120966;27;19980;-47
2021/12/07 01:41:04;;;;;;;;;;;22.90;23.70;;;;;;5121354;27;19944;-51
2021/12/07 01:44:00;;;;;;;;;;;22.90;23.70;;;;;;5126629;27;20442;-48
2021/12/07 01:47:22;;;;;;;;;;;22.90;23.70;;;;;;5121137;27;19924;-46
2021/12/07 01:52:23;;;;;;;;;;;22.90;23.80;;;;;;5126154;28;19950;-46
2021/12/07 02:00:18;;;;;;;;;;;23.00;23.80;;;;;;5105142;28;19931;-46
2021/12/07 02:02:44;;;;;;;;;;;22.90;23.80;;;;;;5126417;28;19944;-48
2021/12/07 02:05:10;;;;;;;;;;;23.00;23.90;;;;;;5120831;28;19923;-44
2021/12/07 02:07:36;;;;;;;;;;;23.10;23.80;;;;;;5125958;28;20363;-47
2021/12/07 02:10:07;;;;;;;;;;;23.10;23.90;;;;;;5120598;28;19988;-47
2021/12/07 02:12:43;;;;;;;;;;;23.10;23.90;;;;;;5120419;28;19927;-48
2021/12/07 02:15:13;;;;;;;;;;;23.10;23.90;;;;;;5126580;28;20081;-53
2021/12/07 02:17:39;;;;;;;;;;;23.00;24.10;;;;;;5120702;28;20396;-48
2021/12/07 02:20:05;;;;;;;;;;;22.90;24.10;;;;;;5120927;28;20179;-50
2021/12/07 02:22:31;;;;;;;;;;;22.90;24.20;;;;;;5125906;28;20406;-49
2021/12/07 02:24:57;;;;;;;;;;;22.90;24.30;;;;;;5120231;28;19975;-49
2021/12/07 02:27:23;;;;;;;;;;;22.90;24.30;;;;;;5120321;28;20278;-48
2021/12/07 02:29:48;;;;;;;;;;;23.00;24.30;;;;;;5106912;28;19931;-48
2021/12/07 02:32:14;;;;;;;;;;;23.00;24.20;;;;;;5100959;28;19930;-49
2021/12/07 02:34:52;;;;;;;;;;;22.90;24.30;;;;;;5126055;27;19979;-46
2021/12/07 02:37:22;;;;;;;;;;;23.00;24.40;;;;;;5128166;27;19933;-46
2021/12/07 02:39:47;;;;;;;;;;;23.00;24.30;;;;;;5124589;27;20305;-45
2021/12/07 02:42:13;;;;;;;;;;;23.00;24.50;;;;;;5111261;27;19931;-45
2021/12/07 02:44:39;;;;;;;;;;;23.10;24.30;;;;;;5105632;27;19927;-47
2021/12/07 02:47:05;;;;;;;;;;;23.10;24.30;;;;;;5124280;27;19946;-51
2021/12/07 02:49:30;;;;;;;;;;;22.60;24.90;;;;;;5128944;27;19928;-51
2021/12/07 02:51:56;;;;;;;;;;;22.60;24.90;;;;;;5124382;27;19992;-52
2021/12/07 02:54:22;;;;;;;;;;;22.60;24.90;;;;;;5124258;27;20010;-52
2021/12/07 02:56:48;;;;;;;;;;;22.60;24.90;;;;;;5129510;27;20353;-52
2021/12/07 02:59:16;;;;;;;;;;;22.50;25.00;;;;;;5124033;27;19927;-56
2021/12/07 03:01:46;;;;;;;;;;;22.60;25.00;;;;;;5129276;27;20265;-53
2021/12/07 03:04:22;;;;;;;;;;;22.60;25.10;;;;;;5123667;27;19929;-51
2021/12/07 03:07:27;;;;;;;;;;;22.60;25.10;;;;;;5123373;27;20285;-50
2021/12/07 03:09:57;;;;;;;;;;;22.70;25.10;;;;;;5128134;27;20286;-52
2021/12/07 03:26:11;;;;;;;;;;;22.80;25.20;;;;;;5122675;27;20298;-48
2021/12/07 03:28:38;;;;;;;;;;;22.70;25.30;;;;;;5129032;27;20018;-51
2021/12/07 03:31:04;;;;;;;;;;;22.60;25.50;;;;;;5123261;27;19927;-50
2021/12/07 03:33:30;;;;;;;;;;;22.70;25.50;;;;;;5104903;27;19928;-54
2021/12/07 03:35:56;;;;;;;;;;;22.70;25.50;;;;;;5128983;27;19923;-49
2021/12/07 03:38:22;;;;;;;;;;;22.70;25.50;;;;;;5123146;27;20351;-50
2021/12/07 03:40:48;;;;;;;;;;;22.70;25.60;;;;;;5122990;27;19923;-50
2021/12/07 03:43:15;;;;;;;;;;;22.70;25.60;;;;;;5128391;27;20465;-51
2021/12/07 03:45:40;;;;;;;;;;;22.70;25.70;;;;;;5122334;27;19976;-50
2021/12/07 03:48:07;;;;;;;;;;;22.70;25.80;;;;;;5128697;27;19923;-51
2021/12/07 03:50:32;;;;;;;;;;;22.70;25.90;;;;;;5122932;27;19934;-51
2021/12/07 03:52:58;;;;;;;;;;;22.70;25.90;;;;;;5102786;27;19928;-50
2021/12/07 03:55:24;;;;;;;;;;;22.70;25.80;;;;;;5128319;27;19923;-53
2021/12/07 03:57:50;;;;;;;;;;;22.70;25.90;;;;;;5122649;27;20075;-52
2021/12/07 04:00:17;;;;;;;;;;;22.70;25.80;;;;;;5122507;27;19928;-51
2021/12/07 04:02:43;;;;;;;;;;;22.70;25.70;;;;;;5127614;27;20028;-52
2021/12/07 04:05:12;;;;;;;;;;;22.80;25.60;;;;;;5104382;27;19935;-49
2021/12/07 04:07:38;;;;;;;;;;;22.80;25.70;;;;;;5127947;27;19923;-50
2021/12/07 04:10:05;;;;;;;;;;;22.80;25.60;;;;;;5123083;27;19973;-52
2021/12/07 04:12:31;;;;;;;;;;;22.80;25.60;;;;;;5102505;27;20531;-48
2021/12/07 04:14:57;;;;;;;;;;;22.70;25.70;;;;;;5127777;27;19927;-50
2021/12/07 04:17:22;;;;;;;;;;;22.80;25.70;;;;;;5121963;27;20448;-52
2021/12/07 04:19:48;;;;;;;;;;;22.80;25.60;;;;;;5122368;27;20299;-49
2021/12/07 04:22:14;;;;;;;;;;;22.80;25.70;;;;;;5127040;27;20382;-49
2021/12/07 04:24:40;;;;;;;;;;;22.80;25.70;;;;;;5122443;27;19968;-51
2021/12/07 04:27:06;;;;;;;;;;;22.80;25.70;;;;;;5124817;27;19930;-56
2021/12/07 04:29:31;;;;;;;;;;;22.90;25.60;;;;;;5125242;27;19923;-51
2021/12/07 04:31:57;;;;;;;;;;;22.80;25.60;;;;;;5122029;27;19930;-49
2021/12/07 04:34:23;;;;;;;;;;;22.90;25.60;;;;;;5127127;27;20424;-49
2021/12/07 04:36:49;;;;;;;;;;;22.90;25.60;;;;;;5121920;27;20352;-51
2021/12/07 04:39:14;;;;;;;;;;;22.90;25.70;;;;;;5121633;27;19935;-51
2021/12/07 04:41:43;;;;;;;;;;;22.80;25.80;;;;;;5127353;27;20318;-51
2021/12/07 04:44:09;;;;;;;;;;;22.80;25.80;;;;;;5121992;27;19948;-49
2021/12/07 04:47:07;;;;;;;;;;;22.80;25.80;;;;;;5121967;27;19923;-48
2021/12/07 04:57:42;;;;;;;;;;;22.90;25.80;;;;;;5126603;27;19972;-49
2021/12/07 05:00:16;;;;;;;;;;;23.00;25.80;;;;;;5118604;27;20301;-48
2021/12/07 05:02:45;;;;;;;;;;;22.90;25.80;;;;;;5121932;27;20017;-50
2021/12/07 05:05:14;;;;;;;;;;;22.90;25.90;;;;;;5127161;27;19923;-48
2021/12/07 05:07:46;;;;;;;;;;;22.90;25.80;;;;;;5121876;27;19927;-47
2021/12/07 05:16:27;;;;;;;;;;;23.00;26.00;;;;;;5090023;27;20139;-47
2021/12/07 05:18:35;;;;;;;;;;;22.80;26.00;;;;;;5105892;27;20437;-48
2021/12/07 05:24:02;;;;;;;;;;;23.00;26.00;;;;;;5125107;27;20361;-47
2021/12/07 05:39:54;;;;;;;;;;;23.20;25.80;;;;;;5126835;27;19923;-51
2021/12/07 05:42:22;;;;;;;;;;;22.90;26.00;;;;;;5120960;27;20379;-49
2021/12/07 05:44:48;;;;;;;;;;;22.90;25.90;;;;;;5121279;27;20382;-51
2021/12/07 05:47:14;;;;;;;;;;;22.90;25.70;;;;;;5126155;27;19924;-50
2021/12/07 05:49:39;;;;;;;;;;;22.90;25.70;;;;;;5120628;28;19977;-51
2021/12/07 05:52:05;;;;;;;;;;;23.00;25.60;;;;;;5125920;28;19928;-49
2021/12/07 05:54:31;;;;;;;;;;;22.90;25.50;;;;;;5120284;28;20022;-50
2021/12/07 05:56:57;;;;;;;;;;;23.00;25.40;;;;;;5120883;28;19928;-49
2021/12/07 05:59:23;;;;;;;;;;;23.00;25.30;;;;;;5126231;28;19931;-47
2021/12/07 06:01:48;;;;;;;;;;;23.00;25.30;;;;;;5120684;28;20409;-47
2021/12/07 06:04:14;;;;;;;;;;;23.00;25.30;;;;;;5120974;28;20307;-48
2021/12/07 06:06:40;;;;;;;;;;;23.00;25.30;;;;;;5125986;28;20076;-46
2021/12/07 06:09:06;;;;;;;;;;;23.00;25.20;;;;;;5121548;27;19934;-45
2021/12/07 06:11:32;;;;;;;;;;;23.20;25.10;;;;;;5129083;27;19948;-58
2021/12/07 06:13:58;;;;;;;;;;;23.20;25.00;;;;;;5125745;27;19935;-51
2021/12/07 06:16:24;;;;;;;;;;;23.00;25.30;;;;;;5106863;27;19924;-51
2021/12/07 06:18:50;;;;;;;;;;;23.00;25.30;;;;;;5130251;27;19980;-50
2021/12/07 06:21:15;;;;;;;;;;;23.00;25.30;;;;;;5125099;27;20320;-45
2021/12/07 06:23:41;;;;;;;;;;;23.00;25.20;;;;;;5106321;27;19924;-46
2021/12/07 06:26:07;;;;;;;;;;;23.10;25.00;;;;;;5129863;27;20030;-48
2021/12/07 06:28:33;;;;;;;;;;;23.20;25.00;;;;;;5124368;27;20026;-51
2021/12/07 06:30:59;;;;;;;;;;;23.10;25.00;;;;;;5126473;27;20452;-55
2021/12/07 06:33:25;;;;;;;;;;;23.00;25.00;;;;;;5128001;27;19923;-50
2021/12/07 06:35:51;;;;;;;;;;;23.00;24.90;;;;;;5124737;27;20010;-50
2021/12/07 06:38:22;;;;;;;;;;;23.00;24.80;;;;;;5130020;27;20362;-47
2021/12/07 06:40:48;;;;;;;;;;;23.10;24.70;;;;;;5107114;27;19923;-46
2021/12/07 06:43:14;;;;;;;;;;;23.10;24.60;;;;;;5124195;27;19931;-53
2021/12/07 06:45:39;;;;;;;;;;;23.00;24.70;;;;;;5111169;27;19961;-50
2021/12/07 06:48:06;;;;;;;;;;;23.10;24.60;;;;;;5124086;27;19927;-52
2021/12/07 06:50:32;;;;;;;;;;;23.00;24.70;;;;;;5123816;27;19924;-52
2021/12/07 06:52:57;;;;;;;;;;;22.90;24.70;;;;;;5129946;27;19977;-51
2021/12/07 06:55:23;;;;;;;;;;;23.00;24.80;;;;;;5124192;27;20104;-48
2021/12/07 06:57:49;;;;;;;;;;;23.00;24.90;;;;;;5129827;27;20331;-49
2021/12/07 07:00:15;;;;;;;;;;;23.00;24.90;;;;;;5123927;27;19974;-49
2021/12/07 07:02:41;;;;;;;;;;;22.90;25.00;;;;;;5123585;27;20013;-53
2021/12/07 07:05:07;;;;;;;;;;;23.00;25.00;;;;;;5129190;27;20458;-51
2021/12/07 07:07:34;;;;;;;;;;;22.90;25.10;;;;;;5123229;27;19935;-51
2021/12/07 07:10:00;;;;;;;;;;;22.90;25.10;;;;;;5123752;27;19929;-49
2021/12/07 07:12:25;;;;;;;;;;;23.00;25.00;;;;;;5129184;27;20359;-52
2021/12/07 07:14:51;;;;;;;;;;;22.90;25.20;;;;;;5123758;27;19923;-49
2021/12/07 07:17:17;;;;;;;;;;;22.90;25.20;;;;;;5129237;27;19923;-47
2021/12/07 07:19:43;;;;;;;;;;;23.00;25.20;;;;;;5123713;27;19935;-49
2021/12/07 07:22:09;;;;;;;;;;;23.00;25.20;;;;;;5122759;27;20057;-44
2021/12/07 07:24:35;;;;;;;;;;;23.00;25.20;;;;;;5128930;27;20371;-47
2021/12/07 07:27:01;;;;;;;;;;;23.10;25.10;;;;;;5122913;27;19927;-51
2021/12/07 07:29:26;;;;;;;;;;;23.10;25.00;;;;;;5123840;27;20536;-46
2021/12/07 07:31:52;;;;;;;;;;;23.00;25.20;;;;;;5128921;27;19981;-63
2021/12/07 07:34:18;;;;;;;;;;;23.00;25.20;;;;;;5123761;27;20022;-55
2021/12/07 07:36:44;;;;;;;;;;;22.40;26.10;;;;;;5127087;27;20278;-57
2021/12/07 07:39:10;;;;;;;;;;;22.50;26.00;;;;;;5107203;27;20042;-51
2021/12/07 07:41:36;;;;;;;;;;;22.60;25.80;;;;;;5122883;27;19924;-50
2021/12/07 07:44:02;;;;;;;;;;;22.70;25.70;;;;;;5128292;27;19923;-53
2021/12/07 07:46:27;;;;;;;;;;;22.70;25.70;;;;;;5122882;27;19939;-51
2021/12/07 07:48:53;;;;;;;;;;;22.80;25.70;;;;;;5123289;27;19924;-53
2021/12/07 07:51:19;;;;;;;;;;;22.60;25.80;;;;;;5110039;27;19927;-50
2021/12/07 07:53:45;;;;;;;;;;;22.70;25.80;;;;;;5123048;27;19923;-51
2021/12/07 07:56:11;;;;;;;;;;;22.80;25.70;;;;;;5123913;27;19930;-55
2021/12/07 07:58:37;;;;;;;;;;;22.70;25.70;;;;;;5127546;27;19923;-51
2021/12/07 08:01:03;;;;;;;;;;;22.70;25.60;;;;;;5122562;27;19923;-48
2021/12/07 08:03:29;;;;;;;;;;;22.80;25.40;;;;;;5127538;27;19927;-51
2021/12/07 08:05:55;;;;;;;;;;;22.80;25.30;;;;;;5122708;27;20509;-52
2021/12/07 08:08:20;;;;;;;;;;;22.80;25.10;;;;;;5104202;27;20435;-51
2021/12/07 08:10:46;;;;;;;;;;;22.80;25.10;;;;;;5128278;27;19923;-47
2021/12/07 08:13:12;;;;;;;;;;;22.80;25.00;;;;;;5122809;27;20399;-50
2021/12/07 08:15:42;;;;;;;;;;;22.90;24.80;;;;;;5118445;27;19976;-48
2021/12/07 08:18:08;;;;;;;;;;;22.90;24.80;;;;;;5127603;27;19923;-50
2021/12/07 08:20:34;;;;;;;;;;;23.00;24.70;;;;;;5103074;27;20451;-53
2021/12/07 08:23:04;;;;;;;;;;;23.00;24.70;;;;;;5108825;27;20021;-50
2021/12/07 08:25:33;;;;;;;;;;;23.00;24.60;;;;;;5122600;27;19924;-50
2021/12/07 08:27:59;;;;;;;;;;;23.00;24.50;;;;;;5122256;27;19927;-55
2021/12/07 08:30:25;;;;;;;;;;;23.00;24.50;;;;;;5128031;27;20340;-51
2021/12/07 08:32:51;;;;;;;;;;;23.00;24.50;;;;;;5121287;27;19928;-52
2021/12/07 08:35:17;;;;;;;;;;;23.10;24.40;;;;;;5121876;27;19976;-49
2021/12/07 08:37:44;;;;;;;;;;;23.00;24.40;;;;;;5127331;27;20331;-56
2021/12/07 08:40:10;;;;;;;;;;;23.00;24.40;;;;;;5121231;27;20065;-51
2021/12/07 08:42:37;;;;;;;;;;;23.00;24.40;;;;;;5105645;27;19963;-57
2021/12/07 08:45:06;;;;;;;;;;;23.00;24.30;;;;;;5107517;27;19938;-50
2021/12/07 08:47:31;;;;;;;;;;;23.10;24.20;;;;;;5121850;27;20313;-51
2021/12/07 08:49:57;;;;;;;;;;;23.10;24.10;;;;;;5127308;27;19937;-52
2021/12/07 08:52:23;;;;;;;;;;;23.00;24.20;;;;;;5121415;27;19967;-50
2021/12/07 09:00:24;;;;;;;;;;;23.00;24.10;;;;;;5200651;27;20292;-50
2021/12/07 09:02:50;;;;;;;;;;;22.90;24.20;;;;;;5200596;27;20012;-50
2021/12/07 09:05:17;;;;;;;;;;;23.00;24.00;;;;;;5205767;27;19924;-51
2021/12/07 09:07:44;;;;;;;;;;;22.90;24.10;;;;;;5179792;27;20005;-48
2021/12/07 09:10:09;;;;;;;;;;;23.00;24.00;;;;;;5199841;27;20013;-49
2021/12/07 09:12:35;;;;;;;;;;;23.00;24.00;;;;;;5205282;27;20445;-50
2021/12/07 09:15:01;;;;;;;;;;;23.10;23.90;;;;;;5199871;27;19926;-46
2021/12/07 09:17:27;;;;;;;;;;;23.10;23.80;;;;;;5201266;27;19926;-54
2021/12/07 09:19:52;;;;;;;;;;;23.20;23.80;;;;;;5204162;27;19953;-53
2021/12/07 09:22:19;;;;;;;;;;;23.00;23.90;;;;;;5182326;27;19930;-53
2021/12/07 09:24:44;;;;;;;;;;;23.00;23.90;;;;;;5184447;27;19922;-52
2021/12/07 09:27:10;;;;;;;;;;;23.00;23.90;;;;;;5160180;27;20389;-47
2021/12/07 09:29:37;;;;;;;;;;;23.00;23.90;;;;;;5159866;27;19955;-54
2021/12/07 09:32:03;;;;;;;;;;;23.00;23.80;;;;;;5183923;27;19933;-54
2021/12/07 09:34:29;;;;;;;;;;;23.00;23.80;;;;;;5178400;27;19929;-51
2021/12/07 09:36:54;;;;;;;;;;;23.00;23.80;;;;;;5158741;27;20398;-51
2021/12/07 09:39:20;;;;;;;;;;;23.10;23.80;;;;;;5165587;27;19923;-51
2021/12/07 09:41:46;;;;;;;;;;;23.10;23.70;;;;;;5178334;27;19956;-52
2021/12/07 09:44:12;;;;;;;;;;;23.20;23.60;;;;;;5183872;27;19922;-52
2021/12/07 09:46:38;;;;;;;;;;;23.00;23.70;;;;;;5178310;27;19977;-51
2021/12/07 09:49:04;;;;;;;;;;;23.10;23.60;;;;;;5177764;27;19930;-59
2021/12/07 09:51:29;;;;;;;;;;;23.00;23.60;;;;;;5183445;27;19923;-49
2021/12/07 09:53:56;;;;;;;;;;;23.00;23.60;;;;;;5177439;27;19947;-48
2021/12/07 09:56:21;;;;;;;;;;;23.00;23.60;;;;;;5178283;27;19923;-57
2021/12/07 09:58:48;;;;;;;;;;;23.20;23.50;;;;;;5183859;27;19927;-51
2021/12/07 10:01:14;;;;;;;;;;;22.80;23.70;;;;;;5159522;27;19979;-51
2021/12/07 10:03:40;;;;;;;;;;;23.00;23.50;;;;;;5183668;27;19927;-50
2021/12/07 10:06:06;;;;;;;;;;;23.10;23.40;;;;;;5165110;27;19922;-60
2021/12/07 10:08:32;;;;;;;;;;;23.10;23.40;;;;;;5143230;27;20048;-52
2021/12/07 10:10:58;;;;;;;;;;;23.00;23.50;;;;;;5169275;27;19937;-52
2021/12/07 10:13:26;;;;;;;;;;;23.00;23.40;;;;;;5163313;27;19927;-49
2021/12/07 10:15:53;;;;;;;;;;;23.10;23.30;;;;;;5164285;27;20174;-53
2021/12/07 10:18:20;;;;;;;;;;;23.00;23.30;;;;;;5169225;27;20365;-50
2021/12/07 10:20:47;;;;;;;;;;;23.10;23.20;;;;;;5163712;27;20387;-51
2021/12/07 10:23:13;;;;;;;;;;;23.10;23.20;;;;;;5166609;27;19934;-57
2021/12/07 10:25:40;;;;;;;;;;;22.60;23.60;;;;;;5166610;27;19979;-53
2021/12/07 10:28:24;;;;;;;;;;;22.80;23.40;;;;;;5163416;27;20010;-53
2021/12/07 10:30:50;;;;;;;;;;;22.80;23.30;;;;;;5168599;27;19923;-52
2021/12/07 10:33:21;;;;;;;;;;;22.90;23.30;;;;;;5145087;27;20334;-53
2021/12/07 10:35:47;;;;;;;;;;;22.90;23.30;;;;;;5145201;27;19951;-51
2021/12/07 10:38:14;;;;;;;;;;;22.90;23.20;;;;;;5169078;27;19974;-53
2021/12/07 10:41:00;;;;;;;;;;;22.90;23.20;;;;;;5163791;27;20428;-49
2021/12/07 10:43:44;;;;;;;;;;;22.90;23.20;;;;;;5163225;27;20292;-52
2021/12/07 10:46:29;;;;;;;;;;;23.00;23.00;;;;;;5168840;27;19945;-50
2021/12/07 10:49:07;;;;;;;;;;;23.10;22.90;;;;;;5167293;27;20022;-47
2021/12/07 10:51:33;;;;;;;;;;;23.00;23.00;;;;;;5163348;27;20013;-53
2021/12/07 10:53:58;;;;;;;;;;;23.10;22.90;;;;;;5168827;27;19930;-52
2021/12/07 10:56:28;;;;;;;;;;;23.10;22.90;;;;;;5163368;27;19930;-47
2021/12/07 10:58:58;;;;;;;;;;;23.10;22.90;;;;;;5163568;27;20389;-49
2021/12/07 11:01:31;;;;;;;;;;;23.10;22.80;;;;;;5168843;27;20385;-55
2021/12/07 11:04:15;;;;;;;;;;;22.80;23.00;;;;;;5163031;27;20019;-50
2021/12/07 11:06:59;;;;;;;;;;;22.90;23.00;;;;;;5162842;27;20018;-54
2021/12/07 11:09:25;;;;;;;;;;;22.90;22.80;;;;;;5168185;27;19929;-51
2021/12/07 11:12:04;;;;;;;;;;;23.00;22.60;;;;;;5163441;27;19922;-49
2021/12/07 11:14:37;;;;;;;;;;;23.00;22.50;;;;;;5162948;27;20328;-49
2021/12/07 11:17:03;;;;;;;;;;;23.10;22.30;;;;;;5167463;27;19931;-57
2021/12/07 11:19:29;;;;;;;;;;;22.80;22.30;;;;;;5162451;27;19927;-54
2021/12/07 11:21:55;;;;;;;;;;;22.80;22.30;;;;;;5162631;27;20017;-52
2021/12/07 11:24:21;;;;;;;;;;;22.90;22.10;;;;;;5168080;27;19975;-53
2021/12/07 11:29:40;;;;;;;;;;;23.00;21.90;;;;;;5145708;27;19923;-51
2021/12/07 11:32:07;;;;;;;;;;;23.10;21.80;;;;;;5168159;27;19923;-51
2021/12/07 11:34:39;;;;;;;;;;;22.90;21.90;;;;;;5162643;27;19926;-58
2021/12/07 11:37:08;;;;;;;;;;;23.00;21.80;;;;;;5162581;27;20186;-52
2021/12/07 11:39:36;;;;;;;;;;;22.80;21.70;;;;;;5167901;27;19922;-55
2021/12/07 11:42:06;;;;;;;;;;;23.00;21.50;;;;;;5162026;27;19923;-55
2021/12/07 11:44:33;;;;;;;;;;;23.00;21.40;;;;;;5164349;27;19971;-57
2021/12/07 11:46:59;;;;;;;;;;;22.90;21.50;;;;;;5166434;27;19999;-50
2021/12/07 11:49:26;;;;;;;;;;;23.00;21.30;;;;;;5162402;27;19933;-50
2021/12/07 11:51:53;;;;;;;;;;;23.00;21.40;;;;;;5167642;27;19931;-55
2021/12/07 11:54:19;;;;;;;;;;;22.90;21.50;;;;;;5162322;27;20127;-52
2021/12/07 11:56:45;;;;;;;;;;;23.00;21.50;;;;;;5162041;27;19929;-50
2021/12/07 11:59:10;;;;;;;;;;;23.10;21.50;;;;;;5167262;27;19966;-47
2021/12/07 12:01:36;;;;;;;;;;;23.10;21.70;;;;;;5162023;27;20400;-50
2021/12/07 12:04:02;;;;;;;;;;;23.10;21.60;;;;;;5161642;27;20289;-59
2021/12/07 12:06:28;;;;;;;;;;;23.00;21.70;;;;;;5147127;27;19935;-54
2021/12/07 12:08:54;;;;;;;;;;;22.80;21.90;;;;;;5162049;27;19926;-52
2021/12/07 12:11:21;;;;;;;;;;;22.90;21.90;;;;;;5167517;27;19967;-52
2021/12/07 12:14:06;;;;;;;;;;;22.90;22.10;;;;;;5143550;27;20358;-51
2021/12/07 12:16:38;;;;;;;;;;;22.90;22.40;;;;;;5161831;27;19935;-50
2021/12/07 12:19:10;;;;;;;;;;;22.90;22.40;;;;;;5167072;27;20524;-50
2021/12/07 12:21:35;;;;;;;;;;;23.00;22.40;;;;;;5161198;27;20017;-47
2021/12/07 12:24:07;;;;;;;;;;;23.10;22.40;;;;;;5161977;27;20289;-47
2021/12/07 12:26:35;;;;;;;;;;;23.10;22.60;;;;;;5167747;27;20010;-49
2021/12/07 12:29:01;;;;;;;;;;;23.10;22.60;;;;;;5161598;27;20304;-51
2021/12/07 12:31:47;;;;;;;;;;;23.00;23.00;;;;;;5161802;27;19929;-48
2021/12/07 12:34:13;;;;;;;;;;;23.00;23.00;;;;;;5166391;27;19926;-50
2021/12/07 12:36:39;;;;;;;;;;;23.10;23.20;;;;;;5161698;27;19926;-54
2021/12/07 12:39:05;;;;;;;;;;;22.90;23.50;;;;;;5161573;27;19990;-50
2021/12/07 12:41:31;;;;;;;;;;;22.90;23.40;;;;;;5166511;27;19923;-48
2021/12/07 12:43:58;;;;;;;;;;;23.00;23.30;;;;;;5161915;27;19938;-50
2021/12/07 12:46:24;;;;;;;;;;;23.00;23.30;;;;;;5165166;27;19926;-54
2021/12/07 12:48:51;;;;;;;;;;;23.00;23.30;;;;;;5163912;27;19926;-49
2021/12/07 12:51:17;;;;;;;;;;;23.00;23.40;;;;;;5161556;27;20266;-53
2021/12/07 12:53:46;;;;;;;;;;;23.10;23.30;;;;;;5166337;27;19938;-51
2021/12/07 12:56:14;;;;;;;;;;;22.80;23.50;;;;;;5161161;27;19929;-51
2021/12/07 12:58:42;;;;;;;;;;;23.00;23.30;;;;;;5161128;27;20019;-49
2021/12/07 13:01:15;;;;;;;;;;;23.10;23.20;;;;;;5166993;27;19933;-55
2021/12/07 13:03:45;;;;;;;;;;;23.10;23.20;;;;;;5161311;27;19934;-61
2021/12/07 13:06:14;;;;;;;;;;;22.90;23.00;;;;;;5161359;27;20401;-49
2021/12/07 13:08:52;;;;;;;;;;;22.90;22.80;;;;;;5148175;27;19933;-57
2021/12/07 13:11:31;;;;;;;;;;;23.00;22.40;;;;;;5161015;27;19923;-56
2021/12/07 13:13:57;;;;;;;;;;;23.00;22.30;;;;;;5160852;27;19929;-50
2021/12/07 13:16:22;;;;;;;;;;;23.10;22.10;;;;;;5166598;27;20297;-52
2021/12/07 13:18:48;;;;;;;;;;;23.10;22.20;;;;;;5160691;27;20046;-50
2021/12/07 13:21:37;;;;;;;;;;;22.90;22.30;;;;;;5146218;27;19923;-59
2021/12/07 13:24:08;;;;;;;;;;;23.10;22.10;;;;;;5152740;27;19927;-51
2021/12/07 13:26:34;;;;;;;;;;;23.10;22.00;;;;;;5161418;27;19966;-57
2021/12/07 13:29:01;;;;;;;;;;;23.00;22.00;;;;;;5164476;27;19923;-55
2021/12/07 13:31:31;;;;;;;;;;;22.90;22.10;;;;;;5163397;27;20429;-58
2021/12/07 13:33:57;;;;;;;;;;;23.00;22.10;;;;;;5141950;27;19929;-51
2021/12/07 13:36:32;;;;;;;;;;;23.00;22.10;;;;;;5165653;27;19923;-49
2021/12/07 13:39:10;;;;;;;;;;;23.00;22.30;;;;;;5161164;27;19945;-51
2021/12/07 13:41:54;;;;;;;;;;;23.10;22.30;;;;;;5145134;27;19923;-51
2021/12/07 13:44:20;;;;;;;;;;;22.90;22.60;;;;;;5170003;27;19923;-52
2021/12/07 13:46:46;;;;;;;;;;;22.90;22.60;;;;;;5164279;27;19933;-48
2021/12/07 13:49:12;;;;;;;;;;;23.00;22.60;;;;;;5164010;27;20370;-50
2021/12/07 13:51:38;;;;;;;;;;;23.00;22.50;;;;;;5169571;27;19922;-49
2021/12/07 13:54:04;;;;;;;;;;;23.10;22.50;;;;;;5163666;27;20374;-53
2021/12/07 13:56:34;;;;;;;;;;;23.10;22.60;;;;;;5164161;27;19991;-52
2021/12/07 13:59:09;;;;;;;;;;;23.00;22.70;;;;;;5169865;27;20386;-52
2021/12/07 14:01:36;;;;;;;;;;;23.00;22.70;;;;;;5164358;27;19929;-50
2021/12/07 14:04:02;;;;;;;;;;;23.00;22.80;;;;;;5164445;27;19931;-50
2021/12/07 14:06:28;;;;;;;;;;;22.90;23.00;;;;;;5169589;27;20019;-51
2021/12/07 14:09:00;;;;;;;;;;;23.00;22.90;;;;;;5163793;27;19951;-50
2021/12/07 14:11:26;;;;;;;;;;;22.90;23.00;;;;;;5169351;27;19923;-50
2021/12/07 14:13:52;;;;;;;;;;;22.90;23.00;;;;;;5163396;27;20400;-52
2021/12/07 14:16:23;;;;;;;;;;;23.00;23.10;;;;;;5164162;27;19922;-51
2021/12/07 14:18:49;;;;;;;;;;;23.00;23.10;;;;;;5169129;27;20293;-50
2021/12/07 14:21:15;;;;;;;;;;;23.00;23.10;;;;;;5163995;27;19956;-53
2021/12/07 14:23:41;;;;;;;;;;;23.00;23.10;;;;;;5143052;27;19950;-51
2021/12/07 14:26:08;;;;;;;;;;;23.10;23.20;;;;;;5169020;27;20026;-50
2021/12/07 14:28:35;;;;;;;;;;;23.00;23.20;;;;;;5163492;27;19929;-47
2021/12/07 14:31:03;;;;;;;;;;;23.10;23.20;;;;;;5164622;27;19929;-55
2021/12/07 14:33:29;;;;;;;;;;;23.10;23.20;;;;;;5169212;27;19922;-53
2021/12/07 14:35:59;;;;;;;;;;;22.80;23.40;;;;;;5163988;27;19934;-51
2021/12/07 14:38:28;;;;;;;;;;;22.80;23.40;;;;;;5168992;27;19927;-53
2021/12/07 14:40:54;;;;;;;;;;;22.90;23.30;;;;;;5163780;27;19923;-49
2021/12/07 14:43:20;;;;;;;;;;;22.90;23.20;;;;;;5163431;27;20384;-49
2021/12/07 14:45:46;;;;;;;;;;;22.90;23.20;;;;;;5132682;27;19946;-50
2021/12/07 14:48:11;;;;;;;;;;;23.00;23.10;;;;;;5163455;27;19934;-49
2021/12/07 14:50:37;;;;;;;;;;;23.00;22.90;;;;;;5144163;27;19923;-48
2021/12/07 14:53:03;;;;;;;;;;;23.00;22.80;;;;;;5169140;27;20337;-57
2021/12/07 14:55:29;;;;;;;;;;;23.00;22.60;;;;;;5144775;27;20068;-52
2021/12/07 14:57:54;;;;;;;;;;;22.90;22.60;;;;;;5168894;27;19934;-53
2021/12/07 15:00:20;;;;;;;;;;;22.80;22.60;;;;;;5163244;27;20388;-51
2021/12/07 15:02:48;;;;;;;;;;;22.80;22.40;;;;;;5163034;27;20013;-55
2021/12/07 15:05:14;;;;;;;;;;;22.80;22.40;;;;;;5168423;27;19979;-52
2021/12/07 15:07:41;;;;;;;;;;;22.80;22.50;;;;;;5144012;27;21315;-52
2021/12/07 15:10:08;;;;;;;;;;;22.90;22.50;;;;;;5162881;27;20146;-49
2021/12/07 15:12:40;;;;;;;;;;;22.90;22.50;;;;;;5168762;27;19973;-50
2021/12/07 15:15:06;;;;;;;;;;;22.90;22.50;;;;;;5162948;27;20302;-50
2021/12/07 15:17:32;;;;;;;;;;;22.90;22.40;;;;;;5163195;27;19926;-49
2021/12/07 15:19:58;;;;;;;;;;;23.00;22.30;;;;;;5168125;27;19926;-53
2021/12/07 15:22:24;;;;;;;;;;;22.90;22.40;;;;;;5162481;27;20396;-54
2021/12/07 15:24:50;;;;;;;;;;;22.90;22.20;;;;;;5168335;27;20009;-50
2021/12/07 15:27:18;;;;;;;;;;;22.90;22.40;;;;;;5162205;27;19929;-48
2021/12/07 15:29:44;;;;;;;;;;;22.90;22.40;;;;;;5163332;27;19923;-49
2021/12/07 15:32:11;;;;;;;;;;;23.00;22.40;;;;;;5168297;27;19962;-51
2021/12/07 15:34:39;;;;;;;;;;;23.00;22.40;;;;;;5162881;27;20407;-51
2021/12/07 15:37:06;;;;;;;;;;;23.00;22.50;;;;;;5163072;27;20125;-51
2021/12/07 15:39:33;;;;;;;;;;;23.10;22.40;;;;;;5167847;27;19957;-51
2021/12/07 15:42:06;;;;;;;;;;;22.90;22.50;;;;;;5162141;27;20460;-51
2021/12/07 15:44:36;;;;;;;;;;;22.90;22.40;;;;;;5145392;27;19929;-56
2021/12/07 15:47:09;;;;;;;;;;;23.00;22.30;;;;;;5167645;27;20362;-50